Time;durP1;ratioP1;P1;durP2;ratioP2;P2;SDS_P1;SDS_P2;PMS_P1;PMS_P2;Temp;Humidity;BMP_temperature;BMP_pressure;BME280_temperature;BME280_humidity;BME280_pressure;Samples;Min_cycle;Max_cycle;Signal;HPM_P1;HPM_P2
2023/10/11 00:00:44;;;;;;;12.60;4.03;;;17.40;81.40;;;;;;4937636;29;20483;-79
2023/10/11 00:05:50;;;;;;;8.77;3.28;;;17.40;81.60;;;;;;4954949;29;20110;-79
2023/10/11 00:08:17;;;;;;;9.35;3.78;;;17.30;81.50;;;;;;4954947;29;20031;-79
2023/10/11 00:11:19;;;;;;;10.30;3.70;;;17.30;81.60;;;;;;4937267;29;20032;-79
2023/10/11 00:28:08;;;;;;;10.07;4.35;;;17.20;81.90;;;;;;4750358;30;20032;-80
2023/10/11 00:31:31;;;;;;;;;;;;;;;;;;;;;
2023/10/11 00:33:57;;;;;;;11.63;3.58;;;17.20;81.90;;;;;;4825250;29;20126;-79
2023/10/11 00:36:29;;;;;;;8.35;4.18;;;17.20;82.10;;;;;;4825316;29;20096;-79
2023/10/11 00:38:56;;;;;;;9.30;3.38;;;17.10;82.00;;;;;;4932858;28;20035;-79
2023/10/11 00:41:25;;;;;;;10.35;3.90;;;17.10;82.00;;;;;;4958566;28;20472;-79
2023/10/11 00:43:52;;;;;;;10.75;4.18;;;17.10;82.00;;;;;;4958546;29;20078;-79
2023/10/11 00:46:24;;;;;;;8.88;3.67;;;17.10;82.00;;;;;;4958478;29;20067;-79
2023/10/11 00:48:54;;;;;;;7.97;3.92;;;17.10;82.00;;;;;;4957634;28;20107;-79
2023/10/11 00:51:23;;;;;;;10.05;3.85;;;17.10;82.00;;;;;;4957860;28;20035;-79
2023/10/11 00:53:50;;;;;;;8.15;3.42;;;17.10;82.10;;;;;;4958337;29;20115;-79
2023/10/11 00:56:18;;;;;;;9.70;3.10;;;17.10;82.10;;;;;;4958240;29;20069;-79
2023/10/11 00:58:44;;;;;;;8.35;3.63;;;17.10;82.10;;;;;;4958282;29;20028;-79
2023/10/11 01:01:10;;;;;;;7.47;3.47;;;17.10;82.20;;;;;;4958045;28;20377;-79
2023/10/11 01:03:37;;;;;;;7.95;3.75;;;17.10;82.20;;;;;;4957611;29;20034;-79
2023/10/11 01:06:04;;;;;;;8.07;3.65;;;17.10;82.20;;;;;;4940708;29;20484;-79
2023/10/11 01:08:38;;;;;;;14.40;3.65;;;17.10;82.10;;;;;;4957875;29;20043;-79
2023/10/11 01:11:22;;;;;;;7.40;3.10;;;17.10;82.10;;;;;;4957917;29;20055;-79
2023/10/11 01:13:51;;;;;;;9.27;3.92;;;17.10;82.20;;;;;;4940657;29;20118;-80
2023/10/11 01:16:18;;;;;;;10.73;4.25;;;17.10;82.20;;;;;;4956137;29;20043;-79
2023/10/11 01:18:44;;;;;;;8.68;4.07;;;17.10;82.20;;;;;;4958170;29;20086;-77
2023/10/11 01:21:12;;;;;;;9.57;4.22;;;17.10;82.30;;;;;;4956511;28;20101;-78
2023/10/11 01:23:38;;;;;;;10.95;3.85;;;17.10;82.30;;;;;;4940276;29;20050;-77
2023/10/11 01:26:06;;;;;;;8.00;3.97;;;17.00;82.40;;;;;;4957700;29;20047;-78
2023/10/11 01:28:36;;;;;;;10.13;4.07;;;17.00;82.40;;;;;;4957525;29;20043;-78
2023/10/11 01:31:08;;;;;;;9.45;4.30;;;17.00;82.40;;;;;;4957680;29;20047;-78
2023/10/11 01:33:41;;;;;;;8.18;4.03;;;17.00;82.40;;;;;;4940375;29;20501;-77
2023/10/11 01:36:08;;;;;;;9.13;4.20;;;17.00;82.50;;;;;;4957128;29;20484;-78
2023/10/11 01:38:48;;;;;;;12.52;4.07;;;17.00;82.50;;;;;;4957421;29;20066;-79
2023/10/11 01:41:26;;;;;;;8.75;3.58;;;17.00;82.50;;;;;;4957120;29;20484;-79
2023/10/11 01:43:53;;;;;;;6.25;2.85;;;17.00;82.50;;;;;;4955598;28;20588;-80
2023/10/11 01:46:27;;;;;;;8.18;3.72;;;17.00;82.50;;;;;;4957260;29;20035;-79
2023/10/11 01:48:54;;;;;;;8.88;3.45;;;17.00;82.60;;;;;;4956878;29;20061;-79
2023/10/11 01:51:25;;;;;;;9.68;3.92;;;17.00;82.60;;;;;;4957397;29;20042;-79
2023/10/11 01:53:55;;;;;;;7.45;3.88;;;16.90;82.60;;;;;;4957403;29;20035;-78
2023/10/11 01:56:23;;;;;;;11.30;4.40;;;16.90;83.00;;;;;;4957279;29;20043;-79
2023/10/11 01:58:50;;;;;;;9.23;3.90;;;16.90;82.70;;;;;;4957161;29;20067;-79
2023/10/11 02:01:23;;;;;;;9.70;3.63;;;16.90;82.70;;;;;;4939561;29;20031;-79
2023/10/11 02:03:56;;;;;;;10.10;3.25;;;16.90;82.70;;;;;;4956974;29;20095;-79
2023/10/11 02:06:23;;;;;;;9.45;4.38;;;16.90;83.30;;;;;;4939762;29;20384;-79
2023/10/11 02:08:50;;;;;;;8.82;3.67;;;16.90;82.70;;;;;;4956894;29;20443;-79
2023/10/11 02:11:16;;;;;;;9.10;3.88;;;16.90;82.80;;;;;;4956466;29;20035;-78
2023/10/11 02:13:43;;;;;;;7.88;4.07;;;16.90;82.80;;;;;;4956964;29;20130;-77
2023/10/11 02:16:14;;;;;;;8.25;4.43;;;16.90;82.90;;;;;;4956431;29;20448;-78
2023/10/11 02:18:41;;;;;;;10.65;4.07;;;16.90;82.80;;;;;;4939499;29;20039;-77
2023/10/11 02:21:06;;;;;;;9.70;3.88;;;16.90;82.90;;;;;;4956328;29;20051;-77
2023/10/11 02:23:42;;;;;;;10.05;4.90;;;16.90;83.00;;;;;;4956518;29;20057;-79
2023/10/11 02:26:14;;;;;;;8.82;3.88;;;16.90;83.00;;;;;;4956825;29;20086;-78
2023/10/11 02:28:40;;;;;;;11.05;3.88;;;16.90;83.20;;;;;;4956509;29;20115;-78
2023/10/11 02:31:06;;;;;;;10.63;4.38;;;16.90;83.10;;;;;;4956289;29;20086;-78
2023/10/11 02:33:33;;;;;;;10.98;4.78;;;16.80;83.00;;;;;;4956408;29;20062;-78
2023/10/11 02:36:09;;;;;;;12.57;4.55;;;16.80;83.20;;;;;;4956342;29;20032;-79
2023/10/11 02:38:47;;;;;;;10.57;4.35;;;16.80;83.30;;;;;;4956233;29;20049;-78
2023/10/11 02:41:14;;;;;;;12.32;4.75;;;16.80;83.40;;;;;;4956091;29;20050;-78
2023/10/11 02:43:49;;;;;;;8.30;4.60;;;16.80;83.40;;;;;;4956316;29;20062;-80
2023/10/11 02:46:22;;;;;;;11.20;4.43;;;16.80;83.40;;;;;;4939725;29;20040;-80
2023/10/11 02:48:49;;;;;;;9.75;4.70;;;16.70;83.40;;;;;;4955884;29;20090;-79
2023/10/11 02:51:17;;;;;;;9.23;4.63;;;16.70;83.40;;;;;;4956185;29;20391;-79
2023/10/11 02:53:46;;;;;;;9.23;3.92;;;16.70;83.50;;;;;;4956223;29;20090;-79
2023/10/11 02:56:13;;;;;;;12.77;4.10;;;16.70;83.60;;;;;;4954918;28;20399;-78
2023/10/11 02:58:41;;;;;;;12.18;4.63;;;16.60;83.80;;;;;;4954130;29;20488;-78
2023/10/11 03:01:22;;;;;;;8.07;4.10;;;16.60;84.00;;;;;;4938318;29;20035;-78
2023/10/11 03:03:48;;;;;;;12.32;5.15;;;16.60;83.90;;;;;;4956134;29;20106;-79
2023/10/11 03:06:14;;;;;;;12.30;4.82;;;16.50;83.90;;;;;;4956317;29;20460;-78
2023/10/11 03:08:43;;;;;;;8.02;4.60;;;16.50;84.00;;;;;;4955869;29;20082;-78
2023/10/11 03:11:15;;;;;;;12.88;4.38;;;16.50;84.10;;;;;;4955733;29;20054;-78
2023/10/11 03:13:42;;;;;;;9.60;4.45;;;16.40;84.30;;;;;;4938110;29;20031;-78
2023/10/11 03:16:13;;;;;;;10.18;4.97;;;16.40;84.20;;;;;;4937912;29;20090;-79
2023/10/11 03:18:39;;;;;;;10.50;4.72;;;16.40;84.50;;;;;;4956135;29;20031;-79
2023/10/11 03:21:16;;;;;;;12.35;5.38;;;16.40;84.50;;;;;;4955648;29;20039;-79
2023/10/11 03:23:47;;;;;;;9.88;4.90;;;16.40;84.60;;;;;;4955611;29;20043;-78
2023/10/11 03:26:22;;;;;;;9.90;5.47;;;16.30;84.60;;;;;;4938389;29;20542;-78
2023/10/11 03:28:58;;;;;;;10.63;4.78;;;16.30;84.70;;;;;;4955330;29;20043;-78
2023/10/11 03:31:28;;;;;;;11.80;4.95;;;16.30;84.80;;;;;;4954331;29;20042;-78
2023/10/11 03:34:14;;;;;;;12.95;5.22;;;16.20;84.70;;;;;;4938455;29;20085;-78
2023/10/11 03:36:52;;;;;;;11.35;4.80;;;16.20;85.00;;;;;;4955407;29;20039;-78
2023/10/11 03:42:14;;;;;;;10.82;5.63;;;16.10;85.00;;;;;;4954755;29;20099;-78
2023/10/11 03:44:44;;;;;;;10.23;4.55;;;16.10;85.30;;;;;;4955329;29;20050;-78
2023/10/11 03:47:14;;;;;;;10.43;4.97;;;16.00;85.20;;;;;;4955626;29;20452;-78
2023/10/11 03:52:18;;;;;;;10.32;5.20;;;16.00;85.80;;;;;;4955249;29;20031;-78
2023/10/11 03:54:45;;;;;;;8.73;4.40;;;16.00;85.80;;;;;;4955227;29;20027;-78
2023/10/11 03:57:11;;;;;;;8.20;4.80;;;16.00;85.80;;;;;;4954668;29;20043;-78
2023/10/11 03:59:47;;;;;;;13.65;6.03;;;16.00;85.90;;;;;;4955211;29;20032;-78
2023/10/11 04:02:13;;;;;;;10.90;5.72;;;15.90;86.20;;;;;;4954908;29;20435;-79
2023/10/11 04:04:42;;;;;;;12.13;5.25;;;15.90;86.10;;;;;;4954718;29;20089;-78
2023/10/11 04:07:12;;;;;;;11.77;5.70;;;15.90;86.40;;;;;;4954452;29;20035;-79
2023/10/11 04:09:44;;;;;;;12.00;4.97;;;15.90;86.60;;;;;;4937582;29;20035;-78
2023/10/11 04:12:10;;;;;;;13.93;5.50;;;15.80;86.60;;;;;;4937437;29;20176;-78
2023/10/11 04:14:47;;;;;;;12.93;5.68;;;15.80;86.90;;;;;;4954587;29;20027;-78
2023/10/11 04:17:24;;;;;;;10.40;5.68;;;15.80;86.90;;;;;;4954836;29;20075;-78
2023/10/11 04:23:01;;;;;;;10.50;5.63;;;15.80;86.90;;;;;;4954899;29;20027;-79
2023/10/11 04:25:32;;;;;;;10.02;4.35;;;15.80;87.10;;;;;;4954140;29;20067;-78
2023/10/11 04:27:58;;;;;;;10.88;5.15;;;15.80;87.10;;;;;;4954902;29;20480;-79
2023/10/11 04:30:27;;;;;;;11.85;5.65;;;15.80;87.30;;;;;;4954822;29;20066;-77
2023/10/11 04:32:56;;;;;;;9.88;4.82;;;15.70;87.20;;;;;;4954473;29;20490;-79
2023/10/11 04:35:25;;;;;;;11.27;5.57;;;15.70;87.30;;;;;;4954813;29;20051;-78
2023/10/11 04:37:54;;;;;;;14.60;6.50;;;15.70;88.10;;;;;;4937747;29;20039;-79
2023/10/11 04:41:14;;;;;;;11.60;5.85;;;15.70;87.70;;;;;;4937143;29;20492;-79
2023/10/11 04:43:25;;;;;;;10.65;6.07;;;15.70;87.90;;;;;;4944914;28;20511;-78
2023/10/11 04:45:54;;;;;;;11.68;5.40;;;15.70;87.90;;;;;;4937023;29;20035;-79
2023/10/11 04:48:30;;;;;;;12.85;5.15;;;15.60;88.20;;;;;;4937654;28;20151;-80
2023/10/11 04:59:06;;;;;;;10.93;5.97;;;15.60;88.60;;;;;;4973511;28;20108;-79
2023/10/11 05:04:26;;;;;;;12.32;5.93;;;15.60;88.90;;;;;;4974005;28;20074;-79
2023/10/11 05:06:53;;;;;;;14.82;5.72;;;15.50;88.90;;;;;;4973888;28;20074;-80
2023/10/11 05:11:53;;;;;;;10.32;5.50;;;15.50;89.00;;;;;;4974303;28;20042;-80
2023/10/11 05:19:46;;;;;;;8.73;5.00;;;15.40;89.20;;;;;;4975947;28;20546;-78
2023/10/11 05:22:29;;;;;;;12.73;5.80;;;15.50;89.40;;;;;;4944247;28;20039;-78
2023/10/11 05:52:08;;;;;;;11.07;5.57;;;15.50;90.40;;;;;;4976936;28;19913;-80
2023/10/11 05:54:35;;;;;;;11.18;6.07;;;15.50;90.30;;;;;;4977237;28;20113;-80
2023/10/11 05:57:05;;;;;;;12.63;5.95;;;15.60;90.30;;;;;;4976841;28;20117;-80
2023/10/11 05:59:32;;;;;;;13.68;6.18;;;15.60;90.30;;;;;;4976827;28;20034;-81
2023/10/11 06:01:59;;;;;;;11.43;5.63;;;15.50;90.30;;;;;;4976672;28;20118;-80
2023/10/11 06:04:24;;;;;;;12.18;6.28;;;15.60;90.50;;;;;;4959436;28;20039;-81
2023/10/11 06:06:57;;;;;;;14.63;7.63;;;15.60;90.60;;;;;;4959170;28;20380;-81
2023/10/11 06:09:29;;;;;;;12.93;5.90;;;15.70;90.70;;;;;;4959481;28;20122;-78
2023/10/11 06:11:57;;;;;;;14.30;7.85;;;15.70;90.90;;;;;;4974269;28;20278;-79
2023/10/11 06:14:23;;;;;;;10.82;6.45;;;15.70;90.80;;;;;;4958288;28;20043;-79
2023/10/11 06:16:56;;;;;;;12.50;6.70;;;15.70;90.70;;;;;;4965212;28;20134;-79
2023/10/11 06:19:27;;;;;;;15.55;7.05;;;15.70;90.70;;;;;;4964907;28;20093;-80
2023/10/11 06:21:57;;;;;;;13.10;6.70;;;15.80;90.80;;;;;;4947850;28;20027;-80
2023/10/11 06:24:33;;;;;;;12.82;7.07;;;15.80;90.80;;;;;;4966379;28;20394;-81
2023/10/11 06:29:45;;;;;;;12.95;6.85;;;15.90;90.90;;;;;;4968584;28;20396;-81
2023/10/11 06:32:12;;;;;;;11.32;6.28;;;15.90;90.90;;;;;;4966962;28;20035;-83
2023/10/11 06:34:38;;;;;;;12.43;7.60;;;15.90;90.90;;;;;;4958188;28;20026;-79
2023/10/11 06:37:08;;;;;;;15.27;7.90;;;15.90;90.90;;;;;;4975240;28;20457;-79
2023/10/11 06:40:07;;;;;;;15.05;8.38;;;15.90;91.10;;;;;;4970235;28;20493;-81
2023/10/11 06:42:21;;;;;;;15.07;7.10;;;16.00;91.10;;;;;;4976805;28;20113;-81
2023/10/11 06:44:52;;;;;;;13.88;6.38;;;16.00;91.20;;;;;;4976482;28;20031;-79
2023/10/11 06:47:19;;;;;;;16.88;7.75;;;16.00;91.20;;;;;;4975511;28;20042;-79
2023/10/11 06:49:53;;;;;;;14.80;7.38;;;16.00;91.20;;;;;;4957684;28;20113;-82
2023/10/11 06:52:26;;;;;;;16.50;7.45;;;16.10;91.30;;;;;;4975848;28;20035;-81
2023/10/11 06:57:39;;;;;;;12.52;7.30;;;16.10;91.30;;;;;;4975151;28;20116;-78
2023/10/11 07:00:23;;;;;;;17.38;7.43;;;16.10;91.40;;;;;;4957897;28;20405;-80
2023/10/11 07:02:54;;;;;;;13.32;7.25;;;16.20;91.40;;;;;;4973695;28;20031;-81
2023/10/11 07:05:25;;;;;;;16.50;7.57;;;16.20;91.50;;;;;;4974718;28;20082;-80
2023/10/11 07:07:52;;;;;;;16.98;9.05;;;16.20;91.50;;;;;;4975320;28;20115;-80
2023/10/11 07:10:33;;;;;;;16.23;8.52;;;16.30;91.60;;;;;;4963554;28;20031;-80
2023/10/11 07:13:03;;;;;;;16.13;8.65;;;16.30;91.70;;;;;;4956135;29;20038;-82
2023/10/11 07:15:43;;;;;;;15.82;7.80;;;16.30;91.60;;;;;;4941325;28;20029;-80
2023/10/11 07:18:21;;;;;;;22.77;7.97;;;16.30;91.60;;;;;;4957436;28;20118;-79
2023/10/11 07:20:47;;;;;;;16.70;7.57;;;16.40;91.70;;;;;;4957010;28;20439;-81
2023/10/11 07:23:18;;;;;;;17.88;9.38;;;16.40;91.70;;;;;;4974866;28;20031;-81
2023/10/11 07:25:45;;;;;;;14.35;8.30;;;16.40;91.90;;;;;;4974926;28;20517;-81
2023/10/11 07:28:14;;;;;;;16.77;9.38;;;16.50;92.00;;;;;;4957657;28;20446;-80
2023/10/11 07:30:40;;;;;;;17.42;9.63;;;16.50;92.10;;;;;;4974786;28;20031;-82
2023/10/11 07:33:06;;;;;;;21.48;9.52;;;16.50;92.10;;;;;;4974530;28;20446;-79
2023/10/11 07:35:33;;;;;;;15.73;7.78;;;16.50;92.10;;;;;;4957194;28;20118;-80
2023/10/11 07:38:00;;;;;;;15.88;8.57;;;16.50;92.10;;;;;;4974476;28;20053;-80
2023/10/11 07:40:45;;;;;;;13.52;8.73;;;16.60;92.20;;;;;;4957239;28;20114;-80
2023/10/11 07:43:16;;;;;;;15.00;8.85;;;16.60;92.10;;;;;;4974178;28;20039;-82
2023/10/11 07:45:47;;;;;;;20.42;8.50;;;16.70;92.20;;;;;;4957290;28;20062;-80
2023/10/11 07:48:19;;;;;;;18.48;8.70;;;16.70;92.20;;;;;;4956673;28;20093;-82
2023/10/11 07:50:46;;;;;;;17.90;9.55;;;16.80;92.20;;;;;;4974886;28;20023;-79
2023/10/11 07:53:13;;;;;;;17.10;9.73;;;16.70;92.20;;;;;;4956791;28;20498;-82
2023/10/11 07:55:45;;;;;;;16.05;10.00;;;16.80;92.30;;;;;;4974453;28;20039;-79
2023/10/11 07:58:11;;;;;;;15.02;9.13;;;16.80;92.40;;;;;;4956912;28;20031;-80
2023/10/11 08:00:41;;;;;;;15.70;8.85;;;16.80;92.40;;;;;;4956754;28;20062;-80
2023/10/11 08:03:11;;;;;;;19.00;10.43;;;16.80;92.40;;;;;;4973919;28;20038;-80
2023/10/11 08:05:45;;;;;;;19.05;10.80;;;16.80;92.50;;;;;;4956974;28;20034;-80
2023/10/11 08:08:15;;;;;;;16.63;10.02;;;16.90;92.60;;;;;;4974239;28;20542;-82
2023/10/11 08:10:44;;;;;;;21.27;12.00;;;16.90;92.60;;;;;;4956752;28;20594;-80
2023/10/11 08:13:26;;;;;;;18.23;10.20;;;16.90;92.80;;;;;;4974470;28;20031;-81
2023/10/11 08:15:57;;;;;;;16.98;10.00;;;16.90;92.80;;;;;;4974395;28;20038;-81
2023/10/11 08:18:23;;;;;;;18.27;9.82;;;16.90;92.90;;;;;;4956526;28;20030;-82
2023/10/11 08:20:50;;;;;;;21.40;11.27;;;16.90;93.00;;;;;;4974112;28;20554;-81
2023/10/11 08:23:28;;;;;;;18.67;10.93;;;16.90;93.10;;;;;;4973945;28;20178;-80
2023/10/11 08:25:55;;;;;;;19.40;12.13;;;17.00;93.10;;;;;;4970698;28;20040;-79
2023/10/11 08:28:28;;;;;;;18.45;10.43;;;17.10;93.30;;;;;;4945278;28;20432;-79
2023/10/11 08:30:57;;;;;;;17.70;10.68;;;17.10;93.30;;;;;;4941280;29;20391;-80
2023/10/11 08:33:30;;;;;;;17.83;10.98;;;17.20;93.40;;;;;;4937295;29;20027;-79
2023/10/11 08:35:56;;;;;;;19.17;11.18;;;17.30;93.40;;;;;;4954684;29;20043;-80
2023/10/11 08:38:25;;;;;;;20.67;12.27;;;17.30;93.40;;;;;;4954414;29;20046;-80
2023/10/11 08:40:58;;;;;;;22.15;12.05;;;17.30;93.40;;;;;;4955519;28;20028;-81
2023/10/11 08:43:31;;;;;;;20.38;11.23;;;17.40;93.50;;;;;;4945353;28;20396;-79
2023/10/11 08:46:01;;;;;;;23.60;11.53;;;17.40;93.60;;;;;;4962838;28;20035;-81
2023/10/11 08:48:27;;;;;;;22.42;13.10;;;17.40;93.70;;;;;;4967655;28;20034;-85
2023/10/11 08:50:55;;;;;;;26.92;14.55;;;17.40;93.80;;;;;;4973993;28;20034;-81
2023/10/11 08:53:21;;;;;;;26.20;15.45;;;17.40;94.10;;;;;;4975702;28;20023;-79
2023/10/11 08:55:56;;;;;;;25.08;14.75;;;17.40;94.20;;;;;;4960101;28;20037;-86
2023/10/11 08:58:27;;;;;;;28.98;15.02;;;17.40;94.30;;;;;;4977495;28;20553;-79
2023/10/11 09:00:55;;;;;;;24.85;15.07;;;17.40;94.50;;;;;;4977092;28;20039;-80
2023/10/11 09:03:26;;;;;;;27.75;14.93;;;17.40;94.60;;;;;;4977370;28;20030;-79
2023/10/11 09:06:01;;;;;;;25.13;16.17;;;17.40;95.00;;;;;;4960137;28;20086;-79
2023/10/11 09:08:31;;;;;;;27.73;15.48;;;17.40;95.30;;;;;;4977415;28;20027;-80
2023/10/11 09:11:11;;;;;;;26.73;16.38;;;17.40;95.40;;;;;;4977245;28;20039;-82
2023/10/11 09:13:37;;;;;;;31.42;16.08;;;17.40;95.50;;;;;;4977211;28;20054;-80
2023/10/11 09:16:13;;;;;;;30.98;16.80;;;17.40;95.80;;;;;;4959532;28;20056;-81
2023/10/11 09:18:41;;;;;;;25.65;16.48;;;17.40;96.00;;;;;;4945055;28;20105;-79
2023/10/11 09:21:17;;;;;;;25.10;15.93;;;17.40;96.20;;;;;;4977073;28;20030;-80
2023/10/11 09:23:47;;;;;;;26.80;16.38;;;17.50;96.30;;;;;;4959458;28;20034;-80
2023/10/11 09:26:23;;;;;;;27.40;17.58;;;17.50;96.40;;;;;;4956756;28;20503;-81
2023/10/11 09:29:02;;;;;;;29.58;18.15;;;17.60;96.50;;;;;;4958114;28;20071;-81
2023/10/11 09:31:30;;;;;;;25.35;16.17;;;17.60;96.60;;;;;;4974985;28;20434;-81
2023/10/11 09:34:07;;;;;;;26.50;16.20;;;17.60;96.70;;;;;;4957612;29;20371;-80
2023/10/11 09:36:33;;;;;;;28.45;16.13;;;17.60;96.70;;;;;;4940230;29;20125;-81
2023/10/11 09:39:02;;;;;;;27.45;17.85;;;17.60;96.90;;;;;;4957417;29;20106;-81
2023/10/11 09:41:38;;;;;;;30.48;17.52;;;17.60;97.00;;;;;;4940145;29;20169;-81
2023/10/11 09:44:11;;;;;;;30.13;17.63;;;17.60;97.20;;;;;;4956827;29;20046;-78
2023/10/11 09:46:37;;;;;;;26.80;17.70;;;17.70;97.40;;;;;;4940198;29;20047;-80
2023/10/11 09:49:04;;;;;;;31.92;20.40;;;17.70;97.60;;;;;;4939601;29;20126;-81
2023/10/11 09:51:31;;;;;;;35.13;18.83;;;17.70;97.70;;;;;;4959625;28;20110;-83
2023/10/11 09:54:07;;;;;;;27.63;20.00;;;17.60;97.80;;;;;;4967197;28;20482;-80
2023/10/11 09:56:51;;;;;;;34.25;21.17;;;17.70;98.10;;;;;;4949059;28;20093;-81
2023/10/11 09:59:47;;;;;;;33.25;21.25;;;17.70;98.30;;;;;;4956741;29;20031;-80
2023/10/11 10:02:17;;;;;;;30.95;18.73;;;17.70;98.40;;;;;;4957149;29;20118;-80
2023/10/11 10:04:51;;;;;;;24.95;18.02;;;17.70;98.40;;;;;;4961354;28;20039;-80
2023/10/11 10:07:24;;;;;;;30.02;19.27;;;17.70;98.70;;;;;;4966851;28;20121;-80
2023/10/11 10:09:54;;;;;;;30.60;19.05;;;17.70;98.70;;;;;;4966857;28;20031;-80
2023/10/11 10:12:22;;;;;;;34.03;22.02;;;17.70;98.70;;;;;;4965812;28;20122;-79
2023/10/11 10:15:11;;;;;;;32.45;19.27;;;17.70;98.90;;;;;;4964677;28;20039;-79
2023/10/11 10:17:38;;;;;;;33.78;20.23;;;17.70;99.10;;;;;;4956439;29;20496;-79
2023/10/11 10:20:28;;;;;;;34.15;21.85;;;17.70;99.20;;;;;;4957086;29;20031;-78
2023/10/11 10:23:16;;;;;;;32.92;21.60;;;17.70;99.30;;;;;;4956311;29;20039;-79
2023/10/11 10:25:48;;;;;;;38.47;22.02;;;17.70;99.50;;;;;;4956895;28;20499;-81
2023/10/11 10:28:34;;;;;;;34.15;21.45;;;17.70;99.80;;;;;;4947726;28;20038;-82
2023/10/11 10:31:24;;;;;;;34.50;19.60;;;17.70;99.90;;;;;;4949282;28;20039;-81
2023/10/11 10:34:13;;;;;;;30.30;18.90;;;17.70;99.90;;;;;;4964585;28;20027;-83
2023/10/11 10:36:40;;;;;;;34.85;20.17;;;17.70;99.90;;;;;;4966556;28;20467;-82
2023/10/11 10:39:36;;;;;;;34.55;19.98;;;17.80;99.90;;;;;;4966177;28;20110;-81
2023/10/11 10:42:15;;;;;;;36.58;20.77;;;17.80;99.90;;;;;;4966090;28;20109;-81
2023/10/11 10:44:54;;;;;;;32.88;19.70;;;17.80;99.90;;;;;;4966243;28;20085;-81
2023/10/11 10:47:31;;;;;;;25.27;17.90;;;17.80;99.90;;;;;;4969176;28;20093;-80
2023/10/11 10:50:04;;;;;;;31.52;17.90;;;17.90;99.90;;;;;;4965630;28;20356;-82
2023/10/11 10:52:30;;;;;;;36.23;19.37;;;17.90;99.90;;;;;;4966543;28;20082;-81
2023/10/11 10:55:01;;;;;;;31.38;19.30;;;17.90;99.90;;;;;;4965562;28;20027;-81
2023/10/11 10:57:28;;;;;;;28.55;18.05;;;17.90;99.90;;;;;;4963565;28;20079;-81
2023/10/11 10:59:54;;;;;;;30.20;18.67;;;18.00;99.90;;;;;;4965546;28;20089;-81
2023/10/11 11:02:21;;;;;;;25.33;17.35;;;18.10;99.90;;;;;;4965793;28;20392;-80
2023/10/11 11:04:47;;;;;;;33.67;17.33;;;18.00;99.90;;;;;;4963959;28;20031;-81
2023/10/11 11:07:26;;;;;;;27.63;16.90;;;18.10;99.90;;;;;;4947203;28;20537;-80
2023/10/11 11:09:54;;;;;;;27.33;15.93;;;18.10;99.90;;;;;;4948398;28;20034;-81
2023/10/11 11:12:31;;;;;;;26.95;17.30;;;18.10;99.90;;;;;;4947995;28;20118;-81
2023/10/11 11:15:00;;;;;;;30.77;19.10;;;18.20;99.90;;;;;;4947545;28;20035;-81
2023/10/11 11:17:46;;;;;;;29.63;16.20;;;18.20;99.90;;;;;;4965169;28;20043;-81
2023/10/11 11:20:27;;;;;;;30.40;18.23;;;18.20;99.90;;;;;;4973486;28;20035;-81
2023/10/11 11:22:54;;;;;;;25.00;17.60;;;18.20;99.90;;;;;;4975090;28;20399;-83
2023/10/11 11:25:27;;;;;;;30.73;16.40;;;18.30;99.90;;;;;;4974472;28;20055;-80
2023/10/11 11:28:17;;;;;;;26.63;15.80;;;18.30;99.90;;;;;;4957650;28;20087;-80
2023/10/11 11:31:13;;;;;;;23.98;15.10;;;18.40;99.90;;;;;;4957362;28;20043;-82
2023/10/11 11:36:30;;;;;;;21.13;13.30;;;18.70;99.90;;;;;;4975169;28;20479;-81
2023/10/11 11:39:16;;;;;;;25.05;12.85;;;18.80;99.90;;;;;;4956872;28;20038;-82
2023/10/11 11:41:52;;;;;;;16.77;11.15;;;18.90;99.70;;;;;;4957272;28;20030;-82
2023/10/11 11:44:27;;;;;;;22.02;13.65;;;19.00;99.60;;;;;;4957277;28;20402;-82
2023/10/11 11:46:54;;;;;;;22.35;12.52;;;19.00;99.20;;;;;;4957420;28;20038;-82
2023/10/11 11:49:26;;;;;;;17.70;10.98;;;19.10;99.10;;;;;;4956876;28;20463;-82
2023/10/11 11:51:55;;;;;;;18.50;10.38;;;19.10;98.90;;;;;;4974498;28;20505;-81
2023/10/11 11:54:22;;;;;;;18.70;10.95;;;19.10;98.80;;;;;;4974245;28;20027;-80
2023/10/11 11:56:54;;;;;;;21.10;12.38;;;19.10;98.70;;;;;;4951048;28;20113;-78
2023/10/11 11:59:29;;;;;;;18.70;10.57;;;19.20;98.60;;;;;;4963959;28;20158;-81
2023/10/11 12:01:56;;;;;;;19.17;10.13;;;19.20;98.40;;;;;;4945439;29;20387;-80
2023/10/11 12:04:29;;;;;;;18.77;9.80;;;19.20;98.40;;;;;;4954993;29;20030;-82
2023/10/11 12:07:07;;;;;;;17.52;8.98;;;19.30;98.40;;;;;;4955169;29;20126;-80
2023/10/11 12:09:34;;;;;;;15.20;9.13;;;19.40;98.10;;;;;;4951893;29;20515;-81
2023/10/11 12:12:05;;;;;;;16.08;9.85;;;19.40;97.90;;;;;;4935808;29;20062;-81
2023/10/11 12:14:40;;;;;;;17.58;10.45;;;19.50;97.80;;;;;;4936975;29;20062;-83
2023/10/11 12:17:11;;;;;;;17.42;8.23;;;19.50;97.60;;;;;;4962857;28;20047;-81
2023/10/11 12:19:41;;;;;;;18.55;8.88;;;19.60;97.40;;;;;;4956949;28;20045;-83
2023/10/11 12:22:08;;;;;;;15.98;9.63;;;19.60;97.30;;;;;;4956839;28;20463;-83
2023/10/11 12:24:35;;;;;;;20.63;10.20;;;19.60;97.00;;;;;;4970079;28;20054;-83
2023/10/11 12:27:00;;;;;;;19.88;9.80;;;19.50;97.00;;;;;;4967931;28;20544;-83
2023/10/11 12:29:26;;;;;;;23.05;10.05;;;19.50;97.00;;;;;;4943381;29;20035;-82
2023/10/11 12:31:56;;;;;;;17.52;8.93;;;19.50;96.90;;;;;;4948927;28;20067;-82
2023/10/11 12:34:25;;;;;;;19.52;8.82;;;19.50;96.90;;;;;;4965877;28;20032;-84
2023/10/11 12:36:53;;;;;;;14.35;8.43;;;19.50;96.90;;;;;;4969349;28;20043;-82
2023/10/11 12:39:24;;;;;;;15.10;8.63;;;19.50;96.90;;;;;;4954665;28;20616;-82
2023/10/11 12:41:51;;;;;;;20.70;11.90;;;19.50;96.90;;;;;;4969919;28;20389;-81
2023/10/11 12:44:18;;;;;;;18.42;10.02;;;19.50;96.80;;;;;;4969588;28;20039;-83
2023/10/11 12:46:49;;;;;;;19.20;9.93;;;19.50;96.80;;;;;;4946105;28;20037;-83
2023/10/11 12:49:15;;;;;;;17.20;10.13;;;19.50;96.80;;;;;;4977667;28;20054;-83
2023/10/11 12:51:42;;;;;;;19.90;9.93;;;19.40;96.80;;;;;;4968583;28;20495;-81
2023/10/11 12:54:12;;;;;;;20.52;10.40;;;19.40;96.80;;;;;;4960072;28;20032;-82
2023/10/11 12:56:44;;;;;;;19.30;11.43;;;19.40;96.90;;;;;;4940664;29;20038;-83
2023/10/11 12:59:12;;;;;;;18.17;11.13;;;19.30;96.90;;;;;;4957735;29;20040;-82
2023/10/11 13:01:50;;;;;;;20.70;11.07;;;19.30;97.00;;;;;;4940418;28;20047;-83
2023/10/11 13:04:30;;;;;;;26.30;12.65;;;19.30;97.00;;;;;;4951621;28;20042;-83
2023/10/11 13:06:59;;;;;;;20.58;12.20;;;19.30;97.10;;;;;;4977508;28;20042;-83
2023/10/11 13:09:27;;;;;;;25.10;13.18;;;19.20;97.20;;;;;;4977112;28;20034;-83
2023/10/11 13:11:57;;;;;;;21.02;13.27;;;19.20;97.50;;;;;;4956309;28;20031;-81
2023/10/11 13:14:23;;;;;;;22.45;13.80;;;19.20;97.20;;;;;;4949677;28;20483;-81
2023/10/11 13:16:51;;;;;;;23.65;14.57;;;19.20;97.30;;;;;;4967574;28;20031;-82
2023/10/11 13:19:18;;;;;;;24.17;15.52;;;19.10;97.40;;;;;;4974010;28;20501;-83
2023/10/11 13:21:54;;;;;;;26.40;14.68;;;19.10;97.40;;;;;;4976761;28;20110;-83
2023/10/11 13:24:24;;;;;;;21.23;13.38;;;19.20;97.40;;;;;;4959021;28;20364;-81
2023/10/11 13:26:55;;;;;;;22.15;14.18;;;19.20;97.40;;;;;;4976637;28;20434;-83
2023/10/11 13:29:22;;;;;;;22.55;13.75;;;19.20;97.50;;;;;;4985143;28;20116;-82
2023/10/11 13:31:53;;;;;;;23.25;16.05;;;19.20;97.50;;;;;;4996558;28;20038;-81
2023/10/11 13:34:19;;;;;;;21.92;15.65;;;19.10;97.50;;;;;;4978628;28;20053;-82
2023/10/11 13:36:45;;;;;;;29.45;16.90;;;19.10;97.60;;;;;;4995733;28;21921;-82
2023/10/11 13:39:26;;;;;;;28.15;17.73;;;19.20;97.60;;;;;;4982058;28;20245;-83
2023/10/11 13:41:57;;;;;;;25.95;16.73;;;19.10;97.60;;;;;;4959540;28;20042;-81
2023/10/11 13:44:23;;;;;;;21.02;14.50;;;19.10;97.70;;;;;;4972223;28;20066;-82
2023/10/11 13:46:55;;;;;;;29.60;16.83;;;19.20;97.60;;;;;;4965718;28;20041;-81
2023/10/11 13:49:25;;;;;;;27.80;18.20;;;19.20;97.70;;;;;;4970216;28;20062;-81
2023/10/11 13:51:59;;;;;;;22.85;16.45;;;19.20;97.70;;;;;;4971778;28;20039;-81
2023/10/11 13:54:36;;;;;;;;;;;19.20;97.60;;;;;;4977265;28;20547;-83
2023/10/11 13:57:07;;;;;;;23.58;15.00;;;19.20;97.60;;;;;;4976730;28;20479;-83
2023/10/11 13:59:37;;;;;;;23.90;15.57;;;19.20;97.60;;;;;;4959268;28;20033;-82
2023/10/11 14:04:48;;;;;;;26.58;16.77;;;19.30;97.50;;;;;;4976234;28;20497;-80
2023/10/11 14:07:36;;;;;;;22.60;15.32;;;19.30;97.50;;;;;;4976362;28;20039;-82
2023/10/11 14:10:14;;;;;;;30.50;18.00;;;19.40;97.40;;;;;;4976691;28;20379;-82
2023/10/11 14:12:40;;;;;;;23.92;16.58;;;19.40;97.40;;;;;;4976410;28;20027;-82
2023/10/11 14:15:17;;;;;;;25.35;16.27;;;19.40;97.40;;;;;;4976183;28;20082;-82
2023/10/11 14:17:49;;;;;;;23.50;14.02;;;19.40;97.30;;;;;;4975946;28;20047;-80
2023/10/11 14:20:25;;;;;;;23.48;16.10;;;19.40;97.30;;;;;;4976046;28;20026;-82